Time;durP1;ratioP1;P1;durP2;ratioP2;P2;SDS_P1;SDS_P2;PMS_P1;PMS_P2;Temp;Humidity;BMP_temperature;BMP_pressure;BME280_temperature;BME280_humidity;BME280_pressure;Samples;Min_cycle;Max_cycle;Signal;HPM_P1;HPM_P2
2021/09/20 00:00:30;;;;;;;6.30;5.50;;;14.30;1.00;;;;;;5109256;28;20680;-60
2021/09/20 00:02:55;;;;;;;7.10;5.20;;;14.40;1.00;;;;;;5109758;28;20411;-60
2021/09/20 00:05:21;;;;;;;6.73;5.60;;;14.50;1.00;;;;;;5107211;28;20267;-59
2021/09/20 00:07:46;;;;;;;6.70;5.60;;;14.50;1.00;;;;;;5107529;28;20237;-58
2021/09/20 00:10:12;;;;;;;6.43;5.83;;;14.50;1.00;;;;;;5109814;28;20203;-59
2021/09/20 00:12:38;;;;;;;5.90;5.30;;;14.60;1.00;;;;;;5091528;28;20239;-58
2021/09/20 00:15:06;;;;;;;7.00;5.30;;;14.40;1.00;;;;;;5088878;28;20233;-59
2021/09/20 00:17:31;;;;;;;8.27;5.90;;;14.30;1.00;;;;;;5111169;28;20446;-58
2021/09/20 00:19:57;;;;;;;7.27;6.17;;;14.20;1.00;;;;;;5109363;28;20529;-58
2021/09/20 00:22:22;;;;;;;9.23;6.63;;;14.30;1.00;;;;;;5107481;28;20240;-59
2021/09/20 00:24:48;;;;;;;6.73;6.03;;;14.20;1.00;;;;;;5110006;28;20187;-59
2021/09/20 00:27:14;;;;;;;6.47;5.87;;;14.20;1.00;;;;;;5108462;28;20183;-60
2021/09/20 00:29:40;;;;;;;6.63;5.87;;;14.20;1.00;;;;;;5102797;28;20191;-60
2021/09/20 00:32:06;;;;;;;7.27;6.17;;;14.30;1.00;;;;;;5094671;28;20423;-59
2021/09/20 00:34:31;;;;;;;6.30;5.70;;;14.30;1.00;;;;;;5106092;28;20753;-58
2021/09/20 00:36:57;;;;;;;6.47;5.77;;;14.30;1.00;;;;;;5109486;28;20592;-59
2021/09/20 00:39:23;;;;;;;6.40;5.80;;;14.30;1.00;;;;;;5108655;28;20206;-59
2021/09/20 00:41:48;;;;;;;8.20;5.60;;;14.30;1.00;;;;;;5105424;28;20288;-60
2021/09/20 00:44:14;;;;;;;11.43;5.80;;;14.40;1.00;;;;;;5087717;28;20187;-59
2021/09/20 00:46:39;;;;;;;5.40;4.90;;;14.50;1.00;;;;;;5105056;28;20537;-60
2021/09/20 00:49:05;;;;;;;7.00;6.03;;;14.50;1.00;;;;;;5109890;28;20230;-59
2021/09/20 00:51:30;;;;;;;7.80;6.40;;;14.50;1.00;;;;;;5105655;28;20182;-59
2021/09/20 00:53:59;;;;;;;6.63;5.93;;;14.40;1.00;;;;;;5107365;28;20214;-60
2021/09/20 00:56:26;;;;;;;6.23;5.63;;;14.30;1.00;;;;;;5107403;28;20221;-58
2021/09/20 00:58:53;;;;;;;10.23;5.47;;;14.30;1.00;;;;;;5109724;28;20455;-59
2021/09/20 01:01:19;;;;;;;7.57;5.83;;;14.30;1.00;;;;;;5108298;28;20441;-59
2021/09/20 01:03:44;;;;;;;6.87;6.17;;;14.20;1.00;;;;;;5106492;28;20425;-59
2021/09/20 01:06:10;;;;;;;5.23;4.73;;;14.20;1.00;;;;;;5109353;28;20439;-60
2021/09/20 01:08:35;;;;;;;9.20;6.03;;;14.20;1.00;;;;;;5103640;27;20178;-59
2021/09/20 01:11:01;;;;;;;5.37;4.87;;;14.30;1.00;;;;;;5109904;28;20195;-58
2021/09/20 01:13:27;;;;;;;6.47;5.37;;;14.20;1.00;;;;;;5109693;28;20191;-59
2021/09/20 01:15:53;;;;;;;5.83;5.30;;;14.10;1.00;;;;;;5106673;28;20197;-59
2021/09/20 01:18:19;;;;;;;6.40;5.80;;;14.10;1.00;;;;;;5108787;28;20508;-59
2021/09/20 01:20:45;;;;;;;5.50;4.67;;;14.10;1.00;;;;;;5109086;28;20433;-60
2021/09/20 01:23:10;;;;;;;5.60;5.10;;;14.10;1.00;;;;;;5091545;28;20434;-60
2021/09/20 01:25:36;;;;;;;4.90;4.50;;;14.00;1.00;;;;;;5108703;28;20584;-59
2021/09/20 01:28:02;;;;;;;6.43;4.90;;;14.00;1.00;;;;;;5109369;28;20176;-60
2021/09/20 01:30:28;;;;;;;5.50;4.93;;;13.90;1.00;;;;;;5109577;28;20647;-59
2021/09/20 01:32:54;;;;;;;6.00;4.77;;;13.90;1.00;;;;;;5102005;28;20449;-60
2021/09/20 01:35:21;;;;;;;5.93;5.27;;;14.00;1.00;;;;;;5106500;28;20196;-58
2021/09/20 01:37:46;;;;;;;5.30;4.70;;;14.10;1.00;;;;;;5110354;28;20670;-60
2021/09/20 01:40:13;;;;;;;6.40;5.30;;;14.00;1.00;;;;;;5090005;28;20558;-59
2021/09/20 01:42:39;;;;;;;6.40;4.90;;;14.00;1.00;;;;;;5107876;28;20182;-59
2021/09/20 01:45:06;;;;;;;6.20;5.20;;;14.10;1.00;;;;;;5106174;28;20451;-59
2021/09/20 01:47:31;;;;;;;6.20;5.27;;;14.10;1.00;;;;;;5108556;28;20433;-57
2021/09/20 01:49:57;;;;;;;9.00;5.00;;;14.20;1.00;;;;;;5109331;28;20802;-59
2021/09/20 01:52:23;;;;;;;9.87;5.17;;;14.10;1.00;;;;;;5106067;28;20198;-59
2021/09/20 01:54:48;;;;;;;5.40;4.90;;;14.00;1.00;;;;;;5107102;28;20178;-60
2021/09/20 01:57:14;;;;;;;6.03;5.17;;;14.10;1.00;;;;;;5106199;28;20447;-59
2021/09/20 01:59:39;;;;;;;4.80;4.40;;;14.20;1.00;;;;;;5109035;28;20272;-59
2021/09/20 02:02:05;;;;;;;6.50;5.73;;;14.10;1.00;;;;;;5111209;28;20241;-60
2021/09/20 02:04:31;;;;;;;7.93;5.40;;;14.10;1.00;;;;;;5112924;28;20182;-59
2021/09/20 02:06:56;;;;;;;6.90;5.40;;;14.10;1.00;;;;;;5112316;28;20261;-59
2021/09/20 02:09:22;;;;;;;6.27;5.07;;;14.20;1.00;;;;;;5107800;28;20252;-60
2021/09/20 02:11:47;;;;;;;5.43;4.93;;;14.10;1.00;;;;;;5113272;28;20182;-60
2021/09/20 02:14:13;;;;;;;6.30;4.80;;;14.10;1.00;;;;;;5108742;28;20196;-60
2021/09/20 02:16:38;;;;;;;6.00;5.50;;;14.10;1.00;;;;;;5110086;28;20179;-60
2021/09/20 02:19:04;;;;;;;5.67;5.07;;;14.10;1.00;;;;;;5092653;28;20304;-59
2021/09/20 02:21:30;;;;;;;5.77;4.77;;;14.10;1.00;;;;;;5113961;28;20190;-59
2021/09/20 02:23:55;;;;;;;5.63;5.07;;;14.00;1.00;;;;;;5103000;28;20408;-60
2021/09/20 02:26:21;;;;;;;8.17;5.30;;;14.10;1.00;;;;;;5113087;28;20180;-59
2021/09/20 02:28:47;;;;;;;6.30;5.57;;;14.00;1.00;;;;;;5110370;28;20190;-60
2021/09/20 02:31:12;;;;;;;5.70;4.40;;;14.10;1.00;;;;;;5110572;28;20189;-59
2021/09/20 02:33:38;;;;;;;5.40;4.90;;;14.20;1.00;;;;;;5105731;28;20229;-59
2021/09/20 02:36:05;;;;;;;5.53;5.03;;;14.20;1.00;;;;;;5111605;28;20600;-59
2021/09/20 02:38:31;;;;;;;5.17;4.60;;;14.10;1.00;;;;;;5109349;27;20183;-59
2021/09/20 02:40:57;;;;;;;4.80;4.30;;;13.90;1.00;;;;;;5108508;28;20416;-59
2021/09/20 02:43:23;;;;;;;9.27;4.70;;;13.80;1.00;;;;;;5108052;28;20449;-59
2021/09/20 02:45:49;;;;;;;5.47;4.80;;;13.90;1.00;;;;;;5099664;28;20440;-58
2021/09/20 02:48:15;;;;;;;6.63;4.50;;;14.00;1.00;;;;;;5112566;28;20445;-60
2021/09/20 02:50:41;;;;;;;5.57;4.67;;;14.00;1.00;;;;;;5112409;28;21008;-58
2021/09/20 02:53:07;;;;;;;5.50;4.73;;;14.00;1.00;;;;;;5110598;28;20182;-59
2021/09/20 02:55:33;;;;;;;6.90;5.37;;;14.00;1.00;;;;;;5112596;28;20273;-58
2021/09/20 02:57:59;;;;;;;5.17;4.70;;;14.00;1.00;;;;;;5112499;28;20814;-59
2021/09/20 03:00:24;;;;;;;5.50;4.07;;;14.10;1.00;;;;;;5111519;28;20477;-59
2021/09/20 03:02:50;;;;;;;7.73;5.30;;;14.00;1.00;;;;;;5110224;28;20441;-59
2021/09/20 03:05:15;;;;;;;5.27;4.50;;;14.00;1.00;;;;;;5111427;28;20643;-59
2021/09/20 03:07:41;;;;;;;4.80;4.30;;;14.00;1.00;;;;;;5107447;28;20176;-59
2021/09/20 03:10:07;;;;;;;5.40;4.43;;;13.90;1.00;;;;;;5110737;28;20286;-59
2021/09/20 03:12:32;;;;;;;6.37;4.90;;;13.90;1.00;;;;;;5108827;28;20727;-59
2021/09/20 03:14:58;;;;;;;5.37;4.87;;;14.00;1.00;;;;;;5108913;28;20952;-59
2021/09/20 03:17:24;;;;;;;6.33;4.50;;;13.90;1.00;;;;;;5111188;28;20193;-59
2021/09/20 03:19:49;;;;;;;6.00;4.87;;;13.90;1.00;;;;;;5112374;28;20246;-59
2021/09/20 03:22:15;;;;;;;5.20;4.70;;;14.00;1.00;;;;;;5107356;28;20197;-59
2021/09/20 03:24:40;;;;;;;5.30;4.43;;;13.90;1.00;;;;;;5108952;28;20210;-59
2021/09/20 03:27:06;;;;;;;6.40;4.83;;;13.90;1.00;;;;;;5108648;27;20185;-59
2021/09/20 03:29:32;;;;;;;5.37;4.87;;;14.00;1.00;;;;;;5111785;28;20578;-60
2021/09/20 03:31:57;;;;;;;4.70;4.30;;;14.10;1.00;;;;;;5092323;28;20186;-59
2021/09/20 03:34:23;;;;;;;5.60;4.77;;;14.10;1.00;;;;;;5108379;28;20334;-59
2021/09/20 03:36:48;;;;;;;5.83;4.20;;;14.00;1.00;;;;;;5093720;28;20544;-59
2021/09/20 03:39:14;;;;;;;7.37;5.17;;;13.90;1.00;;;;;;5110373;28;20585;-58
2021/09/20 03:41:40;;;;;;;5.70;5.07;;;13.90;1.00;;;;;;5110448;28;20244;-59
2021/09/20 03:44:05;;;;;;;5.53;4.60;;;13.80;1.00;;;;;;5109168;28;20200;-59
2021/09/20 03:46:31;;;;;;;4.93;4.43;;;13.80;1.00;;;;;;5107261;28;20247;-59
2021/09/20 03:48:57;;;;;;;6.87;5.13;;;13.80;1.00;;;;;;5112326;28;20225;-60
2021/09/20 03:51:23;;;;;;;5.33;4.57;;;13.80;1.00;;;;;;5109089;28;20249;-59
2021/09/20 03:53:48;;;;;;;5.50;5.00;;;13.90;1.00;;;;;;5110935;28;20711;-58
2021/09/20 03:56:14;;;;;;;6.33;4.97;;;13.90;1.00;;;;;;5105673;28;20490;-59
2021/09/20 03:58:39;;;;;;;7.17;5.23;;;13.90;1.00;;;;;;5110912;28;20210;-59
2021/09/20 04:01:05;;;;;;;7.60;4.50;;;13.90;1.00;;;;;;5108890;28;20183;-60
2021/09/20 04:03:31;;;;;;;5.63;5.10;;;13.80;1.00;;;;;;5109625;28;20263;-58
2021/09/20 04:05:57;;;;;;;5.73;5.10;;;13.90;1.00;;;;;;5108835;28;20196;-59
2021/09/20 04:08:27;;;;;;;5.90;4.80;;;13.90;1.00;;;;;;5093118;28;20210;-59
2021/09/20 04:10:53;;;;;;;5.37;4.87;;;13.90;1.00;;;;;;5107592;28;20444;-58
2021/09/20 04:13:19;;;;;;;5.40;4.70;;;13.90;1.00;;;;;;5109516;28;20870;-58
2021/09/20 04:15:44;;;;;;;6.23;5.30;;;13.90;1.00;;;;;;5107717;28;20458;-59
2021/09/20 04:18:10;;;;;;;4.87;4.33;;;13.90;1.00;;;;;;5110200;28;20181;-58
2021/09/20 04:20:35;;;;;;;8.43;5.07;;;14.00;1.00;;;;;;5110475;28;20779;-60
2021/09/20 04:23:01;;;;;;;5.90;4.80;;;13.90;1.00;;;;;;5109239;28;20178;-60
2021/09/20 04:25:27;;;;;;;5.40;4.90;;;13.90;1.00;;;;;;5105877;28;20204;-58
2021/09/20 04:27:52;;;;;;;5.90;4.80;;;13.90;1.00;;;;;;5109751;27;20205;-59
2021/09/20 04:30:18;;;;;;;9.60;5.50;;;13.90;1.00;;;;;;5097868;28;20261;-59
2021/09/20 04:32:43;;;;;;;6.07;4.83;;;13.80;1.00;;;;;;5108975;28;20190;-59
2021/09/20 04:35:09;;;;;;;10.60;5.00;;;13.90;1.00;;;;;;5094385;28;20731;-62
2021/09/20 04:37:35;;;;;;;6.33;5.60;;;13.80;1.00;;;;;;5109308;28;20189;-62
2021/09/20 04:40:02;;;;;;;7.27;5.43;;;13.90;1.00;;;;;;5108561;28;20992;-62
2021/09/20 04:42:28;;;;;;;5.33;4.63;;;15.50;1.00;;;;;;5109574;28;20419;-61
2021/09/20 04:44:53;;;;;;;7.23;4.27;;;13.70;1.00;;;;;;5110401;28;20445;-61
2021/09/20 04:47:19;;;;;;;6.53;5.80;;;13.70;1.00;;;;;;5110772;28;20205;-62
2021/09/20 04:49:45;;;;;;;6.73;4.70;;;13.70;1.00;;;;;;5108588;28;20726;-62
2021/09/20 04:52:10;;;;;;;10.23;5.03;;;13.80;1.00;;;;;;5106809;28;20270;-62
2021/09/20 04:54:36;;;;;;;8.27;5.20;;;13.70;1.00;;;;;;5109910;28;20194;-62
2021/09/20 04:57:02;;;;;;;5.97;5.37;;;13.70;1.00;;;;;;5110686;28;20192;-63
2021/09/20 04:59:27;;;;;;;5.63;4.90;;;13.60;1.00;;;;;;5108832;28;20207;-62
2021/09/20 05:01:53;;;;;;;6.43;5.20;;;13.60;1.00;;;;;;5109360;28;20711;-63
2021/09/20 05:04:18;;;;;;;6.00;4.47;;;13.70;1.00;;;;;;5110907;28;20604;-62
2021/09/20 05:06:44;;;;;;;5.20;4.67;;;13.70;1.00;;;;;;5109178;28;20266;-63
2021/09/20 05:09:10;;;;;;;6.10;5.47;;;13.80;1.00;;;;;;5110723;28;20185;-62
2021/09/20 05:11:37;;;;;;;5.87;5.30;;;13.80;1.00;;;;;;5107821;28;20212;-63
2021/09/20 05:14:03;;;;;;;5.70;5.20;;;13.80;1.00;;;;;;5110364;28;20903;-62
2021/09/20 05:16:29;;;;;;;6.33;5.30;;;13.80;1.00;;;;;;5106086;28;20425;-61
2021/09/20 05:18:55;;;;;;;6.50;4.77;;;13.80;1.00;;;;;;5104893;28;20431;-61
2021/09/20 05:21:20;;;;;;;6.90;5.67;;;13.70;1.00;;;;;;5110134;28;20489;-60
2021/09/20 05:23:47;;;;;;;6.67;5.10;;;13.70;1.00;;;;;;5107826;28;20174;-61
2021/09/20 05:26:13;;;;;;;9.43;6.30;;;13.80;1.00;;;;;;5104466;28;20296;-61
2021/09/20 05:28:38;;;;;;;8.20;5.20;;;14.00;1.00;;;;;;5106972;28;20526;-61
2021/09/20 05:31:04;;;;;;;6.43;5.77;;;13.80;1.00;;;;;;5091993;28;20663;-62
2021/09/20 05:33:34;;;;;;;6.40;5.17;;;13.90;1.00;;;;;;5104335;28;20198;-62
2021/09/20 05:36:02;;;;;;;6.47;5.47;;;13.90;1.00;;;;;;5109821;28;20195;-62
2021/09/20 05:38:27;;;;;;;7.60;5.80;;;13.80;1.00;;;;;;5106210;28;20449;-61
2021/09/20 05:40:53;;;;;;;6.50;5.77;;;13.90;1.00;;;;;;5107949;28;20419;-59
2021/09/20 05:43:18;;;;;;;8.87;5.40;;;13.80;1.00;;;;;;5089408;28;20194;-61
2021/09/20 05:45:44;;;;;;;7.33;5.00;;;13.80;1.00;;;;;;5107383;28;20640;-62
2021/09/20 05:48:09;;;;;;;10.13;5.50;;;13.80;1.00;;;;;;5108786;28;20186;-62
2021/09/20 05:50:35;;;;;;;6.80;5.10;;;13.80;1.00;;;;;;5107392;28;20198;-61
2021/09/20 05:53:01;;;;;;;5.93;5.33;;;13.80;1.00;;;;;;5103468;28;20184;-61
2021/09/20 05:55:27;;;;;;;7.33;4.70;;;13.80;1.00;;;;;;5104924;28;20275;-61
2021/09/20 05:57:53;;;;;;;6.07;5.47;;;13.90;1.00;;;;;;5109991;28;20462;-61
2021/09/20 06:00:19;;;;;;;6.73;5.33;;;13.80;1.00;;;;;;5107534;28;20207;-63
2021/09/20 06:02:45;;;;;;;10.63;5.90;;;13.90;1.00;;;;;;5109037;28;20178;-61
2021/09/20 06:05:13;;;;;;;5.60;4.90;;;13.90;1.00;;;;;;5107370;28;20432;-60
2021/09/20 06:07:39;;;;;;;8.80;5.27;;;13.90;1.00;;;;;;5104769;28;20637;-60
2021/09/20 06:10:05;;;;;;;5.97;5.40;;;14.00;1.00;;;;;;5109125;28;20455;-61
2021/09/20 06:12:31;;;;;;;9.40;5.97;;;14.00;1.00;;;;;;5106791;28;20565;-60
2021/09/20 06:14:57;;;;;;;7.47;5.53;;;14.10;1.00;;;;;;5103303;28;20460;-61
2021/09/20 06:17:22;;;;;;;5.97;5.37;;;14.20;1.00;;;;;;5104484;28;20182;-62
2021/09/20 06:19:48;;;;;;;6.80;5.90;;;14.20;1.00;;;;;;5109580;28;20204;-61
2021/09/20 06:22:14;;;;;;;6.07;5.43;;;14.20;1.00;;;;;;5106759;28;20274;-61
2021/09/20 06:24:39;;;;;;;6.20;5.60;;;14.10;1.00;;;;;;5106586;28;20594;-61
2021/09/20 06:27:05;;;;;;;9.07;6.10;;;14.20;1.00;;;;;;5109847;28;20180;-61
2021/09/20 06:29:31;;;;;;;6.87;5.77;;;14.20;1.00;;;;;;5107427;28;20188;-60
2021/09/20 06:31:57;;;;;;;6.43;4.97;;;14.10;1.00;;;;;;5104704;28;20183;-61
2021/09/20 06:34:23;;;;;;;7.07;5.47;;;14.00;1.00;;;;;;5107738;28;20216;-61
2021/09/20 06:36:49;;;;;;;6.97;5.80;;;14.20;1.00;;;;;;5089088;28;20445;-60
2021/09/20 06:39:14;;;;;;;6.97;5.63;;;14.30;1.00;;;;;;5090009;28;20607;-62
2021/09/20 06:41:40;;;;;;;7.37;5.50;;;14.30;1.00;;;;;;5106364;28;20185;-61
2021/09/20 06:44:06;;;;;;;7.37;5.30;;;14.20;1.00;;;;;;5104518;28;20176;-63
2021/09/20 06:46:34;;;;;;;6.53;5.40;;;14.40;1.00;;;;;;5108496;28;20185;-61
2021/09/20 06:49:01;;;;;;;5.77;5.23;;;14.50;1.00;;;;;;5108762;28;20303;-62
2021/09/20 06:51:27;;;;;;;7.30;5.80;;;14.60;1.00;;;;;;5106541;28;20963;-61
2021/09/20 06:53:53;;;;;;;7.03;4.97;;;14.60;1.00;;;;;;5108813;28;20520;-62
2021/09/20 06:56:18;;;;;;;6.47;5.63;;;14.60;1.00;;;;;;5102568;28;20506;-63
2021/09/20 06:58:45;;;;;;;6.03;5.43;;;14.60;1.00;;;;;;5093213;28;20781;-62
2021/09/20 07:01:10;;;;;;;5.87;5.27;;;14.70;1.00;;;;;;5111702;28;20178;-62
2021/09/20 07:03:36;;;;;;;8.00;5.47;;;14.80;1.00;;;;;;5111467;28;20511;-62
2021/09/20 07:06:01;;;;;;;7.37;5.60;;;14.90;1.00;;;;;;5108522;28;20214;-60
2021/09/20 07:08:27;;;;;;;7.07;6.07;;;15.00;1.00;;;;;;5110690;28;20183;-61
2021/09/20 07:10:53;;;;;;;12.53;6.57;;;15.10;1.00;;;;;;5107966;28;20179;-62
2021/09/20 07:13:18;;;;;;;6.27;5.63;;;15.20;1.00;;;;;;5112877;28;20201;-61
2021/09/20 07:15:44;;;;;;;8.37;5.50;;;15.20;1.00;;;;;;5110847;28;20182;-60
2021/09/20 07:18:10;;;;;;;9.30;6.03;;;15.00;1.00;;;;;;5109543;28;20210;-61
2021/09/20 07:20:35;;;;;;;7.10;5.00;;;15.00;1.00;;;;;;5094336;28;20224;-60
2021/09/20 07:23:01;;;;;;;7.40;5.30;;;14.90;1.00;;;;;;5111710;28;20252;-62
2021/09/20 07:25:27;;;;;;;6.93;5.53;;;14.80;1.00;;;;;;5103188;28;20654;-61
2021/09/20 07:27:52;;;;;;;5.80;5.30;;;14.70;1.00;;;;;;5093708;28;20254;-62
2021/09/20 07:30:19;;;;;;;6.93;5.67;;;14.80;1.00;;;;;;5093510;28;20189;-60
2021/09/20 07:32:46;;;;;;;7.10;5.77;;;14.90;1.00;;;;;;5109732;27;20202;-62
2021/09/20 07:35:15;;;;;;;9.07;5.83;;;15.00;1.00;;;;;;5106996;28;20436;-61
2021/09/20 07:37:42;;;;;;;7.20;5.20;;;15.10;1.00;;;;;;5109995;28;20448;-61
2021/09/20 07:40:09;;;;;;;7.27;6.23;;;15.30;1.00;;;;;;5112267;28;20556;-62
2021/09/20 07:42:34;;;;;;;7.27;5.77;;;15.40;1.00;;;;;;5111149;28;20886;-62
2021/09/20 07:45:00;;;;;;;10.30;5.80;;;15.30;1.00;;;;;;5110962;28;20522;-62
2021/09/20 07:47:26;;;;;;;6.90;6.10;;;15.30;1.00;;;;;;5092744;28;20211;-62
2021/09/20 07:49:51;;;;;;;6.87;6.00;;;15.40;1.00;;;;;;5108209;28;20215;-60
2021/09/20 07:52:17;;;;;;;8.20;5.80;;;15.30;1.00;;;;;;5107727;28;20186;-62
2021/09/20 07:54:42;;;;;;;7.00;5.63;;;15.30;1.00;;;;;;5112212;28;20247;-61
2021/09/20 07:57:08;;;;;;;7.30;6.20;;;15.20;1.00;;;;;;5108823;28;20217;-60
2021/09/20 07:59:34;;;;;;;6.20;5.57;;;15.20;1.00;;;;;;5110531;28;20663;-61
2021/09/20 08:02:00;;;;;;;10.50;7.03;;;15.30;1.00;;;;;;5110327;28;20512;-61
2021/09/20 08:04:25;;;;;;;12.30;5.90;;;15.10;1.00;;;;;;5111139;28;20241;-60
2021/09/20 08:06:51;;;;;;;7.63;5.97;;;15.00;1.00;;;;;;5107338;28;20221;-61
2021/09/20 08:09:16;;;;;;;7.87;6.27;;;15.00;1.00;;;;;;5093400;28;20221;-60
2021/09/20 08:11:42;;;;;;;7.37;5.93;;;15.00;1.00;;;;;;5110048;28;21222;-60
2021/09/20 08:14:07;;;;;;;5.90;5.30;;;15.20;1.00;;;;;;5111038;28;20278;-59
2021/09/20 08:16:33;;;;;;;7.50;6.03;;;15.30;1.00;;;;;;5102558;28;20179;-61
2021/09/20 08:18:58;;;;;;;6.03;5.43;;;15.50;1.00;;;;;;5111435;28;20267;-62
2021/09/20 08:21:24;;;;;;;7.23;5.43;;;15.60;1.00;;;;;;5111483;28;20213;-60
2021/09/20 08:23:49;;;;;;;7.60;5.77;;;15.60;1.00;;;;;;5106339;28;20191;-61
2021/09/20 08:26:15;;;;;;;8.37;6.33;;;15.50;1.00;;;;;;5110117;28;20228;-60
2021/09/20 08:28:41;;;;;;;5.63;5.03;;;15.40;1.00;;;;;;5111429;28;20184;-61
2021/09/20 08:31:06;;;;;;;6.70;5.10;;;15.40;1.00;;;;;;5093335;28;20182;-61
2021/09/20 08:33:32;;;;;;;10.17;5.73;;;15.30;1.00;;;;;;5092893;28;20182;-59
2021/09/20 08:35:58;;;;;;;5.57;5.07;;;15.30;1.00;;;;;;5111279;28;20181;-60
2021/09/20 08:38:24;;;;;;;8.23;6.60;;;15.50;1.00;;;;;;5105573;28;20179;-60
2021/09/20 08:40:50;;;;;;;5.60;5.00;;;15.50;1.00;;;;;;5106827;28;20238;-59
2021/09/20 08:43:15;;;;;;;9.60;5.97;;;15.50;1.00;;;;;;5105844;28;20490;-59
2021/09/20 08:45:41;;;;;;;6.03;5.43;;;15.80;1.00;;;;;;5107453;28;20493;-62
2021/09/20 08:48:07;;;;;;;6.13;5.50;;;16.30;1.00;;;;;;5108425;28;20633;-59
2021/09/20 08:50:35;;;;;;;6.53;5.93;;;16.30;1.00;;;;;;5089520;28;20279;-60
2021/09/20 08:53:03;;;;;;;9.00;5.70;;;16.50;1.00;;;;;;5110302;28;20540;-60
2021/09/20 08:55:32;;;;;;;9.17;6.67;;;16.60;1.00;;;;;;5110815;28;20428;-60
2021/09/20 08:57:57;;;;;;;12.03;5.70;;;16.80;1.00;;;;;;5110922;28;20440;-59
2021/09/20 09:00:23;;;;;;;6.03;5.33;;;16.90;1.00;;;;;;5111043;28;20833;-60
2021/09/20 09:02:49;;;;;;;8.80;6.07;;;17.10;1.00;;;;;;5110934;28;20645;-60
2021/09/20 09:05:23;;;;;;;7.93;6.43;;;17.10;1.00;;;;;;5110914;28;20460;-60
2021/09/20 09:07:51;;;;;;;7.57;6.10;;;16.90;1.00;;;;;;5110529;28;20180;-60
2021/09/20 09:10:18;;;;;;;7.63;5.67;;;16.50;1.00;;;;;;5110964;28;20478;-60
2021/09/20 09:12:44;;;;;;;5.50;4.90;;;16.60;1.00;;;;;;5110071;28;20744;-61
2021/09/20 09:15:12;;;;;;;5.73;5.10;;;16.90;1.00;;;;;;5110785;28;20558;-60
2021/09/20 09:17:44;;;;;;;6.30;5.07;;;17.00;1.00;;;;;;5110261;28;20469;-62
2021/09/20 09:20:16;;;;;;;6.40;5.13;;;16.90;1.00;;;;;;5110519;28;20436;-61
2021/09/20 09:22:47;;;;;;;6.60;5.90;;;17.10;1.00;;;;;;5110252;28;20408;-61
2021/09/20 09:25:37;;;;;;;5.27;4.43;;;17.20;1.00;;;;;;5110616;28;20428;-59
2021/09/20 09:28:16;;;;;;;5.27;4.77;;;17.30;1.00;;;;;;5110249;28;20405;-61
2021/09/20 09:30:44;;;;;;;5.23;4.70;;;17.30;1.00;;;;;;5110108;28;20401;-59
2021/09/20 09:33:13;;;;;;;5.80;4.73;;;17.20;1.00;;;;;;5110315;28;20416;-59
2021/09/20 09:35:43;;;;;;;5.07;4.57;;;16.90;1.00;;;;;;5091856;28;20444;-59
2021/09/20 09:38:09;;;;;;;6.30;4.47;;;16.60;1.00;;;;;;5109463;28;20411;-61
2021/09/20 09:41:00;;;;;;;5.93;5.40;;;16.60;1.00;;;;;;5109187;28;20477;-59
2021/09/20 09:43:37;;;;;;;6.70;5.17;;;16.60;1.00;;;;;;5110564;28;20587;-59
2021/09/20 09:46:18;;;;;;;7.97;5.30;;;16.30;1.00;;;;;;5107766;28;20933;-61
2021/09/20 09:48:44;;;;;;;7.30;5.10;;;16.40;1.00;;;;;;5109877;28;20436;-59
2021/09/20 09:51:10;;;;;;;5.73;5.20;;;16.60;1.00;;;;;;5110334;28;20399;-60
2021/09/20 09:53:39;;;;;;;5.70;5.20;;;16.90;1.00;;;;;;5109960;28;20482;-60
2021/09/20 09:56:26;;;;;;;9.00;5.90;;;16.80;1.00;;;;;;5109947;28;20518;-59
2021/09/20 09:58:57;;;;;;;7.03;5.40;;;16.90;1.00;;;;;;5110355;28;20413;-61
2021/09/20 10:01:48;;;;;;;6.70;6.07;;;17.00;1.00;;;;;;5110081;28;20454;-59
2021/09/20 10:04:30;;;;;;;7.80;6.00;;;16.80;1.00;;;;;;5110116;28;20995;-60
2021/09/20 10:07:00;;;;;;;7.27;6.53;;;16.70;1.00;;;;;;5109940;28;20451;-59
2021/09/20 10:09:28;;;;;;;6.30;5.07;;;16.80;1.00;;;;;;5108281;28;20476;-60
2021/09/20 10:11:57;;;;;;;7.67;5.60;;;16.80;1.00;;;;;;5107822;28;20441;-59
2021/09/20 10:14:25;;;;;;;6.37;5.20;;;16.70;1.00;;;;;;5109871;28;20418;-60
2021/09/20 10:16:53;;;;;;;7.80;5.80;;;16.70;1.00;;;;;;5107009;28;20424;-62
2021/09/20 10:19:19;;;;;;;5.87;5.27;;;16.90;1.00;;;;;;5109827;28;20437;-59
2021/09/20 10:21:45;;;;;;;6.10;5.50;;;17.00;1.00;;;;;;5091519;28;20409;-61
2021/09/20 10:24:12;;;;;;;6.83;6.17;;;16.80;1.00;;;;;;5111461;28;20539;-61
2021/09/20 10:26:38;;;;;;;6.00;5.50;;;16.90;1.00;;;;;;5093085;28;21127;-60
2021/09/20 10:29:04;;;;;;;7.17;6.10;;;16.80;1.00;;;;;;5112581;28;20918;-61
2021/09/20 10:31:33;;;;;;;8.10;6.20;;;16.70;1.00;;;;;;5113460;28;20180;-59
2021/09/20 10:34:29;;;;;;;7.93;7.30;;;17.00;1.00;;;;;;5113667;28;20448;-60
2021/09/20 10:37:24;;;;;;;7.23;6.63;;;17.20;1.00;;;;;;5095518;28;20462;-60
2021/09/20 10:39:51;;;;;;;8.20;7.33;;;17.20;1.00;;;;;;5111309;27;20432;-61
2021/09/20 10:42:36;;;;;;;9.73;8.83;;;17.10;1.00;;;;;;5111886;28;20548;-60
2021/09/20 10:45:04;;;;;;;9.17;8.33;;;17.00;1.00;;;;;;5094984;28;20445;-60
2021/09/20 10:47:45;;;;;;;8.93;7.73;;;16.90;1.00;;;;;;5113391;28;20404;-61
2021/09/20 10:50:12;;;;;;;9.80;9.00;;;16.90;1.00;;;;;;5113060;28;20584;-60
2021/09/20 10:53:20;;;;;;;8.93;8.03;;;16.50;1.00;;;;;;5113092;28;20439;-59
2021/09/20 10:56:03;;;;;;;10.40;9.50;;;16.90;1.00;;;;;;5113162;28;20441;-59
2021/09/20 10:58:36;;;;;;;9.20;8.23;;;16.90;1.00;;;;;;5113083;28;20414;-62
2021/09/20 11:01:11;;;;;;;10.20;9.00;;;17.10;1.00;;;;;;5113397;28;20444;-60
2021/09/20 11:03:47;;;;;;;9.80;8.93;;;17.10;1.00;;;;;;5112995;28;20436;-60
2021/09/20 11:06:23;;;;;;;9.73;8.80;;;17.20;1.00;;;;;;5112156;28;20417;-59
2021/09/20 11:08:58;;;;;;;9.90;9.00;;;17.20;1.00;;;;;;5113324;28;20460;-61
2021/09/20 11:14:17;;;;;;;11.13;10.13;;;17.20;1.00;;;;;;5112767;28;20409;-59
2021/09/20 11:16:53;;;;;;;10.27;9.37;;;17.30;1.00;;;;;;5111626;28;20445;-62
2021/09/20 11:19:28;;;;;;;10.53;9.53;;;17.50;1.00;;;;;;5112809;28;20437;-59
2021/09/20 11:22:03;;;;;;;9.77;8.83;;;17.70;1.00;;;;;;5112868;28;20490;-60
2021/09/20 11:24:38;;;;;;;9.80;8.90;;;17.80;1.00;;;;;;5112535;28;20412;-59
2021/09/20 11:27:11;;;;;;;10.17;9.27;;;18.10;1.00;;;;;;5112689;28;20402;-61
2021/09/20 11:29:38;;;;;;;10.37;9.47;;;17.90;1.00;;;;;;5112748;28;20431;-59
2021/09/20 11:32:05;;;;;;;11.27;10.20;;;17.80;1.00;;;;;;5112991;28;20450;-60
2021/09/20 11:34:33;;;;;;;11.63;10.53;;;18.10;1.00;;;;;;5110555;28;20470;-60
2021/09/20 11:37:09;;;;;;;11.57;10.47;;;18.00;1.00;;;;;;5111419;28;20497;-60
2021/09/20 11:39:49;;;;;;;11.70;10.57;;;18.00;1.00;;;;;;5112005;28;20497;-60
2021/09/20 11:42:16;;;;;;;11.57;10.40;;;17.90;1.00;;;;;;5111420;28;20786;-60
2021/09/20 11:44:48;;;;;;;10.30;9.33;;;17.80;1.00;;;;;;5112380;28;20442;-60
2021/09/20 11:47:26;;;;;;;10.57;9.57;;;17.70;1.00;;;;;;5112338;28;20514;-61
2021/09/20 11:50:04;;;;;;;12.33;11.17;;;17.80;1.00;;;;;;5112295;28;20906;-59
2021/09/20 11:52:36;;;;;;;11.27;10.10;;;17.80;1.00;;;;;;5112075;28;20413;-60
2021/09/20 11:55:04;;;;;;;10.07;9.07;;;17.60;1.00;;;;;;5112081;28;20492;-60
2021/09/20 11:57:35;;;;;;;10.43;9.43;;;17.80;1.00;;;;;;5112173;28;20734;-60
2021/09/20 12:00:05;;;;;;;11.40;10.40;;;17.80;1.00;;;;;;5110272;28;20501;-60
2021/09/20 12:02:32;;;;;;;11.30;10.30;;;17.30;1.00;;;;;;5111698;28;21004;-60
2021/09/20 12:04:58;;;;;;;11.67;9.13;;;17.40;1.00;;;;;;5111245;28;20434;-60
2021/09/20 12:07:32;;;;;;;10.13;9.07;;;17.60;1.00;;;;;;5111725;28;20434;-61
2021/09/20 12:09:59;;;;;;;9.93;9.03;;;17.70;1.00;;;;;;5111924;28;20452;-61
2021/09/20 12:12:37;;;;;;;8.27;7.40;;;17.70;1.00;;;;;;5111448;28;20446;-59
2021/09/20 12:15:26;;;;;;;8.83;8.00;;;17.60;1.00;;;;;;5111632;28;20436;-60
2021/09/20 12:18:05;;;;;;;7.93;7.23;;;17.50;1.00;;;;;;5092721;28;20448;-60
2021/09/20 12:20:38;;;;;;;10.40;7.17;;;17.80;1.00;;;;;;5111373;28;20493;-61
2021/09/20 12:23:18;;;;;;;7.50;5.77;;;18.00;1.00;;;;;;5110232;28;20425;-60
2021/09/20 12:25:47;;;;;;;8.93;5.40;;;18.10;1.00;;;;;;5111467;28;20411;-61
2021/09/20 12:28:32;;;;;;;5.20;4.70;;;18.10;1.00;;;;;;5111636;28;20406;-60
2021/09/20 12:31:03;;;;;;;5.10;4.50;;;18.10;1.00;;;;;;5111641;28;20485;-60
2021/09/20 12:33:48;;;;;;;6.60;3.60;;;18.10;1.00;;;;;;5110426;28;20411;-60
2021/09/20 12:36:35;;;;;;;4.40;3.80;;;18.00;1.00;;;;;;5110213;28;20634;-61
2021/09/20 12:39:28;;;;;;;4.80;3.60;;;17.80;1.00;;;;;;5111372;28;20477;-61
2021/09/20 12:42:07;;;;;;;3.50;3.20;;;17.80;1.00;;;;;;5108641;28;20751;-60
2021/09/20 12:44:50;;;;;;;5.13;3.73;;;18.00;1.00;;;;;;5111393;28;20411;-60
2021/09/20 12:47:16;;;;;;;3.37;3.07;;;18.00;1.00;;;;;;5110216;28;20445;-61
2021/09/20 12:49:54;;;;;;;3.90;3.40;;;17.80;1.00;;;;;;5111069;28;20879;-61
2021/09/20 12:52:29;;;;;;;4.30;3.30;;;17.80;1.00;;;;;;5111137;28;20455;-60
2021/09/20 12:54:55;;;;;;;4.43;2.93;;;17.70;1.00;;;;;;5110988;28;20442;-59
2021/09/20 12:57:25;;;;;;;5.07;3.30;;;17.20;1.00;;;;;;5111297;28;20418;-61
2021/09/20 13:00:01;;;;;;;4.90;3.80;;;16.90;1.00;;;;;;5110782;28;20462;-62
2021/09/20 13:02:27;;;;;;;2.83;2.60;;;16.80;1.00;;;;;;5110747;28;20935;-61